首页
METAR-TAF:

METAR-TAF

机场 :

圣纳泽尔, 法国

纬度: 47-19N, 经度: 002-10W, 海拔: 3米

当前天气观测

该预报发布于41分钟前的05:00 UTC
风速3节,风向东北
温度 10°C
湿度 93%
气压 1019 hPa
能見度: 5000
碎片雾

METAR: LFRZ 170500Z AUTO 05003KT 5000 R25/0900U BCFG NSC 10/09 Q1019 TEMPO 0500 FG VV///

时间: 07:41 (05:41 UTC)

预报

该预报发布于3小时和21分钟前的02:20 UTC
预报有效从17日的 02点(UTC)到 17日的 24点(UTC)
风速4节,风向西北
能见度10公里或以上
1500米以下无云,无积雨云
短暂存在
从 17日的 02点(UTC)到 17日的 08点(UTC)
能見度: 3000
轻雾
几率 40% :
短暂存在
从 17日的 02点(UTC)到 17日的 06点(UTC)
能見度: 0500

TAF: LFRZ 170220Z 1702/1724 31004KT CAVOK TEMPO 1702/1708 3000 BR PROB40 TEMPO 1702/1706 0500 FG VV///

超过4000个机场的气象观测和天气预报(METAR&TAF报告)。

可查询的气象台以黄色和红色小点在地图上表示。

将鼠标移到小点上方,可查看气象台名称。

然后点击查看天气观测和预报。

如需切换地图:点击带黑十字的绿色按钮放大地图;点击带横线的绿色按钮缩小地图;或者点击绿色箭头查看邻近地区的地图。


METAR-TAF: